หน้าหลัก
METAR-TAF:

METAR-TAF

ท่าอากาศยาน :

King Mswati III International Airport

Manzini, สวาซิแลนด์

ละติจูด: 26-21-24S, ลองจิจูด: 031-43-01E, ความสูง: 324 ม.

การสังเกตสภาพอากาศปัจจุบัน

รายงานได้ทำขึ้นเมื่อ 30 นาทีที่แล้ว ณ เวลา 08:00 UTC
ลม 5 นอตจากตะวันออกเฉียงเหนือ, แปรผันระหว่างเหนือ และตะวันออก
อุณหภูมิ 24°C
ความชื้น 61%
ความกดอากาศ 1019 hPa
ทัศนวิสัย 10 กม. หรือมากกว่า
ไม่มีเมฆต่ำกว่า 1,500 ม. และไม่มีเมฆคิวมูโลนิมบัส

METAR: FDSK 200800Z 04005KT 350V080 CAVOK 24/16 Q1019 NOSIG

เวลา: 10:30 (08:30 UTC)

การพยากรณ์

รายงานได้ทำขึ้นเมื่อ 1 ชั่วโมงและ 30 นาทีที่แล้ว ณ เวลา 07:00 UTC
การพยากรณ์มีผลตั้งแต่วันที่ 20 ณ เวลา 07 UTC จนถึงวันที่ 20 ณ เวลา 18 UTC
ลม 5 นอตจากเหนือ
ทัศนวิสัย 10 กม. หรือมากกว่า
ไม่มีเมฆต่ำกว่า 1,500 ม. และไม่มีเมฆคิวมูโลนิมบัส

TAF: FDSK 200700Z 2007/2018 35005KT CAVOK

สังเกตการณ์สภาพอากาศและพยากรณ์อากาศของสนามบินมากกว่า 4000 แห่ง (รายงาน METAR และ TAF).

สถานีที่ดูได้จะแสดงไว้ด้วยจุดสีเหลืองและสีแดงบนแผนที่.

เลื่อนเมาส์ไปเหนือจุดเพื่อดูชื่อสถานี.

แล้วคลิกเพื่อดูสังเกตการณ์และการพยากรณ์สภาพอากาศ.

ในการเปลี่ยนแผนที่: คลิกที่ปุ่มสีเขียวที่มีกากบาทสีดำเพื่อซูมเข้า; ที่ปุ่มสีเขียวที่มีขีดเพื่อซูมออก; หรือที่ลูกศรสีเขียวเพื่อไปยังแผนที่ที่อยู่ติดกัน.


METAR-TAF: